sensor_id;sensor_type;location;lat;lon;timestamp;temperature;humidity
210;DHT22;90;48.810;9.120;2022-08-03T00:00:22;22.00;61.90
210;DHT22;90;48.810;9.120;2022-08-03T00:02:50;21.80;62.10
210;DHT22;90;48.810;9.120;2022-08-03T00:05:18;21.80;62.20
210;DHT22;90;48.810;9.120;2022-08-03T00:07:45;21.80;62.20
210;DHT22;90;48.810;9.120;2022-08-03T00:10:12;21.80;62.50
210;DHT22;90;48.810;9.120;2022-08-03T00:12:40;21.70;62.40
210;DHT22;90;48.810;9.120;2022-08-03T00:15:08;21.60;62.60
210;DHT22;90;48.810;9.120;2022-08-03T00:17:36;21.50;63.00
210;DHT22;90;48.810;9.120;2022-08-03T00:20:04;21.50;63.20
210;DHT22;90;48.810;9.120;2022-08-03T00:22:33;21.50;63.10
210;DHT22;90;48.810;9.120;2022-08-03T00:25:01;21.50;62.80
210;DHT22;90;48.810;9.120;2022-08-03T00:27:28;21.50;62.90
210;DHT22;90;48.810;9.120;2022-08-03T00:29:55;21.50;63.30
210;DHT22;90;48.810;9.120;2022-08-03T00:32:22;21.50;62.90
210;DHT22;90;48.810;9.120;2022-08-03T00:34:50;21.40;63.10
210;DHT22;90;48.810;9.120;2022-08-03T00:37:18;21.30;63.00
210;DHT22;90;48.810;9.120;2022-08-03T00:39:45;21.40;62.90
210;DHT22;90;48.810;9.120;2022-08-03T00:42:12;21.50;62.90
210;DHT22;90;48.810;9.120;2022-08-03T00:44:40;21.50;62.90
210;DHT22;90;48.810;9.120;2022-08-03T00:47:07;21.40;63.30
210;DHT22;90;48.810;9.120;2022-08-03T00:49:35;21.50;63.10
210;DHT22;90;48.810;9.120;2022-08-03T00:52:04;21.50;62.90
210;DHT22;90;48.810;9.120;2022-08-03T00:54:32;21.50;62.80
210;DHT22;90;48.810;9.120;2022-08-03T00:57:00;21.50;62.80
210;DHT22;90;48.810;9.120;2022-08-03T00:59:29;21.50;62.50
210;DHT22;90;48.810;9.120;2022-08-03T01:01:56;21.40;63.00
210;DHT22;90;48.810;9.120;2022-08-03T01:04:27;21.40;63.00
210;DHT22;90;48.810;9.120;2022-08-03T01:06:59;21.40;62.80
210;DHT22;90;48.810;9.120;2022-08-03T01:09:40;21.40;62.90
210;DHT22;90;48.810;9.120;2022-08-03T01:12:14;21.30;63.30
210;DHT22;90;48.810;9.120;2022-08-03T01:14:49;21.30;63.50
210;DHT22;90;48.810;9.120;2022-08-03T01:17:20;21.30;63.50
210;DHT22;90;48.810;9.120;2022-08-03T01:19:53;21.30;63.40
210;DHT22;90;48.810;9.120;2022-08-03T01:25:32;21.20;63.70
210;DHT22;90;48.810;9.120;2022-08-03T01:28:15;21.10;64.00
210;DHT22;90;48.810;9.120;2022-08-03T01:30:47;21.10;64.30
210;DHT22;90;48.810;9.120;2022-08-03T01:33:19;21.00;64.60
210;DHT22;90;48.810;9.120;2022-08-03T01:35:53;21.00;64.50
210;DHT22;90;48.810;9.120;2022-08-03T01:38:24;21.00;64.50
210;DHT22;90;48.810;9.120;2022-08-03T01:40:53;21.00;64.70
210;DHT22;90;48.810;9.120;2022-08-03T01:43:24;21.00;64.90
210;DHT22;90;48.810;9.120;2022-08-03T01:45:55;21.10;64.40
210;DHT22;90;48.810;9.120;2022-08-03T01:48:24;21.10;64.60
210;DHT22;90;48.810;9.120;2022-08-03T01:50:53;21.00;64.80
210;DHT22;90;48.810;9.120;2022-08-03T01:53:22;21.00;64.90
210;DHT22;90;48.810;9.120;2022-08-03T01:55:53;21.00;64.60
210;DHT22;90;48.810;9.120;2022-08-03T01:58:22;21.00;64.50
210;DHT22;90;48.810;9.120;2022-08-03T02:00:51;21.00;64.70
210;DHT22;90;48.810;9.120;2022-08-03T02:03:22;21.10;64.40
210;DHT22;90;48.810;9.120;2022-08-03T02:05:51;21.00;64.80
210;DHT22;90;48.810;9.120;2022-08-03T02:08:18;20.80;65.20
210;DHT22;90;48.810;9.120;2022-08-03T02:10:47;20.70;65.40
210;DHT22;90;48.810;9.120;2022-08-03T02:13:15;20.70;65.50
210;DHT22;90;48.810;9.120;2022-08-03T02:15:44;20.70;65.60
210;DHT22;90;48.810;9.120;2022-08-03T02:18:12;20.60;65.80
210;DHT22;90;48.810;9.120;2022-08-03T02:20:42;20.60;66.20
210;DHT22;90;48.810;9.120;2022-08-03T02:23:10;20.60;65.80
210;DHT22;90;48.810;9.120;2022-08-03T02:25:42;20.70;65.70
210;DHT22;90;48.810;9.120;2022-08-03T02:28:11;20.70;65.70
210;DHT22;90;48.810;9.120;2022-08-03T02:30:42;20.60;66.40
210;DHT22;90;48.810;9.120;2022-08-03T02:33:17;20.60;66.50
210;DHT22;90;48.810;9.120;2022-08-03T02:35:47;20.50;66.70
210;DHT22;90;48.810;9.120;2022-08-03T02:38:18;20.40;66.90
210;DHT22;90;48.810;9.120;2022-08-03T02:40:49;20.40;67.10
210;DHT22;90;48.810;9.120;2022-08-03T02:43:19;20.30;67.30
210;DHT22;90;48.810;9.120;2022-08-03T02:45:48;20.30;67.30
210;DHT22;90;48.810;9.120;2022-08-03T02:48:19;20.30;67.30
210;DHT22;90;48.810;9.120;2022-08-03T02:50:49;20.20;68.10
210;DHT22;90;48.810;9.120;2022-08-03T02:53:18;20.30;68.00
210;DHT22;90;48.810;9.120;2022-08-03T02:55:48;20.30;67.80
210;DHT22;90;48.810;9.120;2022-08-03T02:58:19;20.40;67.10
210;DHT22;90;48.810;9.120;2022-08-03T03:00:48;20.50;66.70
210;DHT22;90;48.810;9.120;2022-08-03T03:03:20;20.50;66.80
210;DHT22;90;48.810;9.120;2022-08-03T03:05:49;20.30;67.50
210;DHT22;90;48.810;9.120;2022-08-03T03:08:18;20.30;67.60
210;DHT22;90;48.810;9.120;2022-08-03T03:10:46;20.30;67.60
210;DHT22;90;48.810;9.120;2022-08-03T03:13:14;20.30;67.40
210;DHT22;90;48.810;9.120;2022-08-03T03:15:42;20.20;67.90
210;DHT22;90;48.810;9.120;2022-08-03T03:18:11;20.10;68.30
210;DHT22;90;48.810;9.120;2022-08-03T03:20:40;20.20;68.10
210;DHT22;90;48.810;9.120;2022-08-03T03:23:10;20.10;68.70
210;DHT22;90;48.810;9.120;2022-08-03T03:25:39;20.10;68.70
210;DHT22;90;48.810;9.120;2022-08-03T03:28:06;20.20;68.20
210;DHT22;90;48.810;9.120;2022-08-03T03:30:33;20.20;68.20
210;DHT22;90;48.810;9.120;2022-08-03T03:33:00;20.20;68.50
210;DHT22;90;48.810;9.120;2022-08-03T03:35:28;20.20;68.50
210;DHT22;90;48.810;9.120;2022-08-03T03:37:56;20.20;68.90
210;DHT22;90;48.810;9.120;2022-08-03T03:40:24;20.10;68.90
210;DHT22;90;48.810;9.120;2022-08-03T03:42:52;20.10;68.70
210;DHT22;90;48.810;9.120;2022-08-03T03:45:21;20.10;68.70
210;DHT22;90;48.810;9.120;2022-08-03T03:47:49;20.10;69.00
210;DHT22;90;48.810;9.120;2022-08-03T03:50:17;20.00;69.30
210;DHT22;90;48.810;9.120;2022-08-03T03:52:45;20.00;69.20
210;DHT22;90;48.810;9.120;2022-08-03T03:55:15;19.90;69.70
210;DHT22;90;48.810;9.120;2022-08-03T03:57:44;19.90;69.90
210;DHT22;90;48.810;9.120;2022-08-03T04:00:13;19.90;69.90
210;DHT22;90;48.810;9.120;2022-08-03T04:02:41;20.00;70.00
210;DHT22;90;48.810;9.120;2022-08-03T04:05:08;20.00;70.00
210;DHT22;90;48.810;9.120;2022-08-03T04:07:57;20.00;70.10
210;DHT22;90;48.810;9.120;2022-08-03T04:10:47;20.20;69.70
210;DHT22;90;48.810;9.120;2022-08-03T04:13:32;20.00;69.90
210;DHT22;90;48.810;9.120;2022-08-03T04:16:00;20.10;69.80
210;DHT22;90;48.810;9.120;2022-08-03T04:18:30;20.00;70.30
210;DHT22;90;48.810;9.120;2022-08-03T04:21:01;20.10;70.00
210;DHT22;90;48.810;9.120;2022-08-03T04:23:32;20.10;70.00
210;DHT22;90;48.810;9.120;2022-08-03T04:26:02;20.10;70.10
210;DHT22;90;48.810;9.120;2022-08-03T04:28:35;20.10;70.10
210;DHT22;90;48.810;9.120;2022-08-03T04:31:03;20.10;70.30
210;DHT22;90;48.810;9.120;2022-08-03T04:33:34;20.10;70.40
210;DHT22;90;48.810;9.120;2022-08-03T04:36:04;19.90;71.20
210;DHT22;90;48.810;9.120;2022-08-03T04:38:37;19.90;71.20
210;DHT22;90;48.810;9.120;2022-08-03T04:41:05;20.00;71.40
210;DHT22;90;48.810;9.120;2022-08-03T04:43:35;20.00;71.30
210;DHT22;90;48.810;9.120;2022-08-03T04:46:06;20.10;71.20
210;DHT22;90;48.810;9.120;2022-08-03T04:48:36;20.20;71.40
210;DHT22;90;48.810;9.120;2022-08-03T04:51:03;20.20;71.00
210;DHT22;90;48.810;9.120;2022-08-03T04:53:30;20.30;70.80
210;DHT22;90;48.810;9.120;2022-08-03T04:56:03;20.30;70.80
210;DHT22;90;48.810;9.120;2022-08-03T04:58:31;20.40;70.70
210;DHT22;90;48.810;9.120;2022-08-03T05:01:00;20.40;71.00
210;DHT22;90;48.810;9.120;2022-08-03T05:03:29;20.40;71.10
210;DHT22;90;48.810;9.120;2022-08-03T05:05:58;20.50;70.70
210;DHT22;90;48.810;9.120;2022-08-03T05:08:25;20.70;70.40
210;DHT22;90;48.810;9.120;2022-08-03T05:10:53;20.80;70.20
210;DHT22;90;48.810;9.120;2022-08-03T05:13:20;21.00;69.90
210;DHT22;90;48.810;9.120;2022-08-03T05:15:47;21.10;69.60
210;DHT22;90;48.810;9.120;2022-08-03T05:18:16;21.20;69.40
210;DHT22;90;48.810;9.120;2022-08-03T05:20:43;21.30;69.00
210;DHT22;90;48.810;9.120;2022-08-03T05:23:10;21.40;68.80
210;DHT22;90;48.810;9.120;2022-08-03T05:25:37;21.50;68.60
210;DHT22;90;48.810;9.120;2022-08-03T05:28:04;21.60;68.60
210;DHT22;90;48.810;9.120;2022-08-03T05:30:32;21.60;68.70
210;DHT22;90;48.810;9.120;2022-08-03T05:35:27;21.80;68.40
210;DHT22;90;48.810;9.120;2022-08-03T05:40:22;22.00;67.80
210;DHT22;90;48.810;9.120;2022-08-03T05:42:49;22.20;67.40
210;DHT22;90;48.810;9.120;2022-08-03T05:45:16;22.20;67.70
210;DHT22;90;48.810;9.120;2022-08-03T05:47:43;22.30;67.80
210;DHT22;90;48.810;9.120;2022-08-03T05:50:11;22.40;67.70
210;DHT22;90;48.810;9.120;2022-08-03T05:52:40;22.60;67.50
210;DHT22;90;48.810;9.120;2022-08-03T05:55:08;22.50;67.50
210;DHT22;90;48.810;9.120;2022-08-03T05:57:36;22.70;67.60
210;DHT22;90;48.810;9.120;2022-08-03T06:00:05;22.80;67.60
210;DHT22;90;48.810;9.120;2022-08-03T06:02:32;22.90;67.40
210;DHT22;90;48.810;9.120;2022-08-03T06:04:59;23.00;67.30
210;DHT22;90;48.810;9.120;2022-08-03T06:07:27;23.10;67.10
210;DHT22;90;48.810;9.120;2022-08-03T06:09:55;23.20;66.60
210;DHT22;90;48.810;9.120;2022-08-03T06:12:22;23.30;66.00
210;DHT22;90;48.810;9.120;2022-08-03T06:14:49;23.30;66.00
210;DHT22;90;48.810;9.120;2022-08-03T06:19:44;23.60;65.70
210;DHT22;90;48.810;9.120;2022-08-03T06:22:11;23.70;64.90
210;DHT22;90;48.810;9.120;2022-08-03T06:27:06;23.90;63.80
210;DHT22;90;48.810;9.120;2022-08-03T06:32:04;24.00;63.20
210;DHT22;90;48.810;9.120;2022-08-03T06:34:31;24.20;62.80
210;DHT22;90;48.810;9.120;2022-08-03T06:36:59;24.30;62.80
210;DHT22;90;48.810;9.120;2022-08-03T06:39:26;24.30;62.80
210;DHT22;90;48.810;9.120;2022-08-03T06:41:53;24.40;63.20
210;DHT22;90;48.810;9.120;2022-08-03T06:44:21;24.50;63.20
210;DHT22;90;48.810;9.120;2022-08-03T06:46:49;24.60;62.60
210;DHT22;90;48.810;9.120;2022-08-03T06:49:16;24.70;62.20
210;DHT22;90;48.810;9.120;2022-08-03T06:56:38;24.90;61.60
210;DHT22;90;48.810;9.120;2022-08-03T06:59:05;24.90;61.60
210;DHT22;90;48.810;9.120;2022-08-03T07:01:33;25.00;61.60
210;DHT22;90;48.810;9.120;2022-08-03T07:08:56;25.10;61.30
210;DHT22;90;48.810;9.120;2022-08-03T07:11:24;25.10;61.00
210;DHT22;90;48.810;9.120;2022-08-03T07:13:51;25.10;60.70
210;DHT22;90;48.810;9.120;2022-08-03T07:16:18;25.30;60.80
210;DHT22;90;48.810;9.120;2022-08-03T07:18:47;25.30;60.30
210;DHT22;90;48.810;9.120;2022-08-03T07:21:14;25.40;60.00
210;DHT22;90;48.810;9.120;2022-08-03T07:26:11;25.60;59.90
210;DHT22;90;48.810;9.120;2022-08-03T07:28:38;25.60;59.70
210;DHT22;90;48.810;9.120;2022-08-03T07:31:05;25.70;59.70
210;DHT22;90;48.810;9.120;2022-08-03T07:33:33;25.70;59.60
210;DHT22;90;48.810;9.120;2022-08-03T07:36:01;25.80;59.20
210;DHT22;90;48.810;9.120;2022-08-03T07:38:29;25.90;58.80
210;DHT22;90;48.810;9.120;2022-08-03T07:40:56;26.00;58.50
210;DHT22;90;48.810;9.120;2022-08-03T07:43:23;26.10;57.30
210;DHT22;90;48.810;9.120;2022-08-03T07:48:17;26.20;55.20
210;DHT22;90;48.810;9.120;2022-08-03T07:50:44;26.20;55.20
210;DHT22;90;48.810;9.120;2022-08-03T07:53:13;26.30;56.10
210;DHT22;90;48.810;9.120;2022-08-03T07:55:42;26.50;55.90
210;DHT22;90;48.810;9.120;2022-08-03T07:58:10;26.50;55.60
210;DHT22;90;48.810;9.120;2022-08-03T08:00:40;26.60;55.00
210;DHT22;90;48.810;9.120;2022-08-03T08:03:07;26.60;54.80
210;DHT22;90;48.810;9.120;2022-08-03T08:05:35;26.70;54.50
210;DHT22;90;48.810;9.120;2022-08-03T08:08:02;26.80;54.00
210;DHT22;90;48.810;9.120;2022-08-03T08:10:31;26.80;54.00
210;DHT22;90;48.810;9.120;2022-08-03T08:12:58;26.80;54.20
210;DHT22;90;48.810;9.120;2022-08-03T08:15:26;26.80;53.30
210;DHT22;90;48.810;9.120;2022-08-03T08:17:54;26.90;53.80
210;DHT22;90;48.810;9.120;2022-08-03T08:20:23;27.00;53.20
210;DHT22;90;48.810;9.120;2022-08-03T08:22:50;27.00;53.30
210;DHT22;90;48.810;9.120;2022-08-03T08:25:17;27.20;51.80
210;DHT22;90;48.810;9.120;2022-08-03T08:27:47;27.20;51.80
210;DHT22;90;48.810;9.120;2022-08-03T08:30:16;27.20;51.60
210;DHT22;90;48.810;9.120;2022-08-03T08:32:43;27.20;51.20
210;DHT22;90;48.810;9.120;2022-08-03T08:35:11;27.30;51.00
210;DHT22;90;48.810;9.120;2022-08-03T08:37:38;27.30;50.50
210;DHT22;90;48.810;9.120;2022-08-03T08:40:07;27.40;50.50
210;DHT22;90;48.810;9.120;2022-08-03T08:42:36;27.40;50.10
210;DHT22;90;48.810;9.120;2022-08-03T08:45:06;27.40;49.60
210;DHT22;90;48.810;9.120;2022-08-03T08:47:37;27.50;50.00
210;DHT22;90;48.810;9.120;2022-08-03T08:50:06;27.50;50.00
210;DHT22;90;48.810;9.120;2022-08-03T08:52:34;27.70;49.40
210;DHT22;90;48.810;9.120;2022-08-03T08:55:05;27.70;49.40
210;DHT22;90;48.810;9.120;2022-08-03T08:57:35;27.80;49.20
210;DHT22;90;48.810;9.120;2022-08-03T09:00:07;27.90;49.80
210;DHT22;90;48.810;9.120;2022-08-03T09:02:36;27.90;48.50
210;DHT22;90;48.810;9.120;2022-08-03T09:05:09;27.90;48.50
210;DHT22;90;48.810;9.120;2022-08-03T09:07:37;28.10;48.30
210;DHT22;90;48.810;9.120;2022-08-03T09:10:06;28.10;47.70
210;DHT22;90;48.810;9.120;2022-08-03T09:12:37;28.20;47.50
210;DHT22;90;48.810;9.120;2022-08-03T09:15:20;28.10;47.50
210;DHT22;90;48.810;9.120;2022-08-03T09:17:48;28.10;47.50
210;DHT22;90;48.810;9.120;2022-08-03T09:22:56;28.20;48.40
210;DHT22;90;48.810;9.120;2022-08-03T09:25:28;28.30;47.20
210;DHT22;90;48.810;9.120;2022-08-03T09:28:04;28.40;46.40
210;DHT22;90;48.810;9.120;2022-08-03T09:30:33;28.50;46.80
210;DHT22;90;48.810;9.120;2022-08-03T09:33:01;28.50;47.00
210;DHT22;90;48.810;9.120;2022-08-03T09:35:29;28.70;45.80
210;DHT22;90;48.810;9.120;2022-08-03T09:38:12;28.70;45.80
210;DHT22;90;48.810;9.120;2022-08-03T09:40:39;28.70;46.20
210;DHT22;90;48.810;9.120;2022-08-03T09:43:07;28.80;46.70
210;DHT22;90;48.810;9.120;2022-08-03T09:45:36;28.80;46.70
210;DHT22;90;48.810;9.120;2022-08-03T09:48:23;28.90;45.10
210;DHT22;90;48.810;9.120;2022-08-03T09:50:52;29.00;45.70
210;DHT22;90;48.810;9.120;2022-08-03T09:53:20;29.10;45.50
210;DHT22;90;48.810;9.120;2022-08-03T09:55:51;29.10;45.50
210;DHT22;90;48.810;9.120;2022-08-03T09:58:20;29.10;45.70
210;DHT22;90;48.810;9.120;2022-08-03T10:00:57;29.10;45.70
210;DHT22;90;48.810;9.120;2022-08-03T10:03:28;29.20;44.50
210;DHT22;90;48.810;9.120;2022-08-03T10:05:56;29.30;45.00
210;DHT22;90;48.810;9.120;2022-08-03T10:08:23;29.40;44.10
210;DHT22;90;48.810;9.120;2022-08-03T10:10:51;29.50;43.60
210;DHT22;90;48.810;9.120;2022-08-03T10:13:21;29.60;43.80
210;DHT22;90;48.810;9.120;2022-08-03T10:15:51;29.60;42.90
210;DHT22;90;48.810;9.120;2022-08-03T10:18:19;29.60;43.30
210;DHT22;90;48.810;9.120;2022-08-03T10:20:51;29.70;43.30
210;DHT22;90;48.810;9.120;2022-08-03T10:23:19;29.70;42.70
210;DHT22;90;48.810;9.120;2022-08-03T10:25:49;29.80;43.60
210;DHT22;90;48.810;9.120;2022-08-03T10:28:20;29.80;43.30
210;DHT22;90;48.810;9.120;2022-08-03T10:30:51;29.80;42.10
210;DHT22;90;48.810;9.120;2022-08-03T10:33:21;29.80;42.40
210;DHT22;90;48.810;9.120;2022-08-03T10:35:53;29.80;43.10
210;DHT22;90;48.810;9.120;2022-08-03T10:38:24;29.80;43.50
210;DHT22;90;48.810;9.120;2022-08-03T10:40:53;29.90;43.80
210;DHT22;90;48.810;9.120;2022-08-03T10:43:26;30.10;42.80
210;DHT22;90;48.810;9.120;2022-08-03T10:45:55;30.20;42.60
210;DHT22;90;48.810;9.120;2022-08-03T10:48:24;30.30;42.40
210;DHT22;90;48.810;9.120;2022-08-03T10:50:52;30.30;42.30
210;DHT22;90;48.810;9.120;2022-08-03T10:53:34;30.20;42.00
210;DHT22;90;48.810;9.120;2022-08-03T10:56:01;30.20;42.20
210;DHT22;90;48.810;9.120;2022-08-03T10:58:46;30.20;42.60
210;DHT22;90;48.810;9.120;2022-08-03T11:01:15;30.20;41.70
210;DHT22;90;48.810;9.120;2022-08-03T11:04:15;30.20;42.40
210;DHT22;90;48.810;9.120;2022-08-03T11:06:43;30.20;42.20
210;DHT22;90;48.810;9.120;2022-08-03T11:09:15;30.20;42.20
210;DHT22;90;48.810;9.120;2022-08-03T11:11:44;30.40;42.30
210;DHT22;90;48.810;9.120;2022-08-03T11:14:13;30.40;42.10
210;DHT22;90;48.810;9.120;2022-08-03T11:16:41;30.40;41.90
210;DHT22;90;48.810;9.120;2022-08-03T11:19:11;30.40;42.00
210;DHT22;90;48.810;9.120;2022-08-03T11:21:56;30.50;42.40
210;DHT22;90;48.810;9.120;2022-08-03T11:27:37;30.80;40.50
210;DHT22;90;48.810;9.120;2022-08-03T11:30:07;30.80;40.50
210;DHT22;90;48.810;9.120;2022-08-03T11:33:04;30.80;40.10
210;DHT22;90;48.810;9.120;2022-08-03T11:35:32;30.80;41.10
210;DHT22;90;48.810;9.120;2022-08-03T11:38:06;30.90;41.30
210;DHT22;90;48.810;9.120;2022-08-03T11:40:39;30.90;40.70
210;DHT22;90;48.810;9.120;2022-08-03T11:43:08;31.00;41.20
210;DHT22;90;48.810;9.120;2022-08-03T11:45:36;31.00;40.50
210;DHT22;90;48.810;9.120;2022-08-03T11:48:13;31.00;41.00
210;DHT22;90;48.810;9.120;2022-08-03T11:50:41;31.00;40.20
210;DHT22;90;48.810;9.120;2022-08-03T11:53:17;31.20;40.70
210;DHT22;90;48.810;9.120;2022-08-03T11:55:46;31.30;40.80
210;DHT22;90;48.810;9.120;2022-08-03T11:58:18;31.40;40.00
210;DHT22;90;48.810;9.120;2022-08-03T12:00:46;31.50;39.90
210;DHT22;90;48.810;9.120;2022-08-03T12:03:14;31.50;40.70
210;DHT22;90;48.810;9.120;2022-08-03T12:05:44;31.60;40.10
210;DHT22;90;48.810;9.120;2022-08-03T12:08:13;31.70;40.00
210;DHT22;90;48.810;9.120;2022-08-03T12:10:47;31.70;39.70
210;DHT22;90;48.810;9.120;2022-08-03T12:13:15;31.70;39.70
210;DHT22;90;48.810;9.120;2022-08-03T12:15:43;31.80;40.10
210;DHT22;90;48.810;9.120;2022-08-03T12:18:17;31.90;39.80
210;DHT22;90;48.810;9.120;2022-08-03T12:23:12;31.90;39.90
210;DHT22;90;48.810;9.120;2022-08-03T12:25:42;32.00;39.60
210;DHT22;90;48.810;9.120;2022-08-03T12:28:13;32.00;38.50
210;DHT22;90;48.810;9.120;2022-08-03T12:30:45;32.00;39.20
210;DHT22;90;48.810;9.120;2022-08-03T12:33:14;32.10;38.40
210;DHT22;90;48.810;9.120;2022-08-03T12:35:41;32.10;38.40
210;DHT22;90;48.810;9.120;2022-08-03T12:38:09;32.10;38.40
210;DHT22;90;48.810;9.120;2022-08-03T12:43:13;32.30;38.10
210;DHT22;90;48.810;9.120;2022-08-03T12:48:08;32.40;37.70
210;DHT22;90;48.810;9.120;2022-08-03T12:50:37;32.40;37.70
210;DHT22;90;48.810;9.120;2022-08-03T12:53:07;32.50;38.90
210;DHT22;90;48.810;9.120;2022-08-03T12:55:36;32.60;38.80
210;DHT22;90;48.810;9.120;2022-08-03T12:58:05;32.60;38.50
210;DHT22;90;48.810;9.120;2022-08-03T13:00:34;32.70;38.80
210;DHT22;90;48.810;9.120;2022-08-03T13:03:03;32.80;39.30
210;DHT22;90;48.810;9.120;2022-08-03T13:05:32;32.90;39.40
210;DHT22;90;48.810;9.120;2022-08-03T13:08:17;32.80;39.40
210;DHT22;90;48.810;9.120;2022-08-03T13:10:44;32.80;37.80
210;DHT22;90;48.810;9.120;2022-08-03T13:15:43;32.90;37.40
210;DHT22;90;48.810;9.120;2022-08-03T13:18:13;32.90;37.00
210;DHT22;90;48.810;9.120;2022-08-03T13:20:41;32.90;37.10
210;DHT22;90;48.810;9.120;2022-08-03T13:30:34;32.80;37.80
210;DHT22;90;48.810;9.120;2022-08-03T13:33:02;33.00;38.50
210;DHT22;90;48.810;9.120;2022-08-03T13:50:15;33.60;37.80
210;DHT22;90;48.810;9.120;2022-08-03T13:52:45;33.60;36.90
210;DHT22;90;48.810;9.120;2022-08-03T13:55:12;33.60;38.00
210;DHT22;90;48.810;9.120;2022-08-03T13:57:39;33.80;37.40
210;DHT22;90;48.810;9.120;2022-08-03T14:00:08;33.90;36.90
210;DHT22;90;48.810;9.120;2022-08-03T14:02:35;33.90;36.60
210;DHT22;90;48.810;9.120;2022-08-03T14:05:03;33.90;36.00
210;DHT22;90;48.810;9.120;2022-08-03T14:07:35;34.00;36.10
210;DHT22;90;48.810;9.120;2022-08-03T14:10:02;33.90;37.00
210;DHT22;90;48.810;9.120;2022-08-03T14:12:29;34.00;37.00
210;DHT22;90;48.810;9.120;2022-08-03T14:19:54;34.10;36.60
210;DHT22;90;48.810;9.120;2022-08-03T14:22:21;34.30;35.80
210;DHT22;90;48.810;9.120;2022-08-03T14:24:49;34.30;35.70
210;DHT22;90;48.810;9.120;2022-08-03T14:42:05;34.70;34.10
210;DHT22;90;48.810;9.120;2022-08-03T14:44:32;34.70;34.10
210;DHT22;90;48.810;9.120;2022-08-03T14:47:00;34.60;35.40
210;DHT22;90;48.810;9.120;2022-08-03T14:51:54;35.00;34.20
210;DHT22;90;48.810;9.120;2022-08-03T14:54:21;35.10;34.70
210;DHT22;90;48.810;9.120;2022-08-03T14:59:17;35.20;33.60
210;DHT22;90;48.810;9.120;2022-08-03T15:06:39;35.30;34.30
210;DHT22;90;48.810;9.120;2022-08-03T15:09:07;35.40;34.10
210;DHT22;90;48.810;9.120;2022-08-03T15:11:34;35.60;33.70
210;DHT22;90;48.810;9.120;2022-08-03T15:14:01;35.60;33.70
210;DHT22;90;48.810;9.120;2022-08-03T15:16:30;35.70;33.30
210;DHT22;90;48.810;9.120;2022-08-03T15:18:58;35.80;33.50
210;DHT22;90;48.810;9.120;2022-08-03T15:21:25;35.80;33.60
210;DHT22;90;48.810;9.120;2022-08-03T15:23:52;35.90;33.50
210;DHT22;90;48.810;9.120;2022-08-03T15:26:19;36.00;33.60
210;DHT22;90;48.810;9.120;2022-08-03T15:28:46;36.00;33.60
210;DHT22;90;48.810;9.120;2022-08-03T15:31:14;36.10;33.60
210;DHT22;90;48.810;9.120;2022-08-03T15:33:42;36.10;33.20
210;DHT22;90;48.810;9.120;2022-08-03T15:41:04;35.80;32.40
210;DHT22;90;48.810;9.120;2022-08-03T15:50:54;36.10;31.90
210;DHT22;90;48.810;9.120;2022-08-03T15:53:22;36.20;32.00
210;DHT22;90;48.810;9.120;2022-08-03T16:13:01;36.90;31.40
210;DHT22;90;48.810;9.120;2022-08-03T16:15:31;37.10;31.00
210;DHT22;90;48.810;9.120;2022-08-03T16:17:59;37.10;30.60
210;DHT22;90;48.810;9.120;2022-08-03T16:22:54;37.20;30.40
210;DHT22;90;48.810;9.120;2022-08-03T16:25:23;37.20;30.40
210;DHT22;90;48.810;9.120;2022-08-03T16:30:18;37.10;31.10
210;DHT22;90;48.810;9.120;2022-08-03T16:32:45;37.20;30.10
210;DHT22;90;48.810;9.120;2022-08-03T16:35:12;37.40;29.40
210;DHT22;90;48.810;9.120;2022-08-03T16:37:42;37.50;29.10
210;DHT22;90;48.810;9.120;2022-08-03T16:40:10;37.50;29.60
210;DHT22;90;48.810;9.120;2022-08-03T16:42:39;37.50;29.60
210;DHT22;90;48.810;9.120;2022-08-03T16:45:07;37.60;29.20
210;DHT22;90;48.810;9.120;2022-08-03T16:47:35;37.80;28.70
210;DHT22;90;48.810;9.120;2022-08-03T16:50:03;37.80;28.70
210;DHT22;90;48.810;9.120;2022-08-03T16:52:32;37.80;28.30
210;DHT22;90;48.810;9.120;2022-08-03T16:54:59;37.80;28.30
210;DHT22;90;48.810;9.120;2022-08-03T16:57:26;37.90;28.60
210;DHT22;90;48.810;9.120;2022-08-03T16:59:55;38.00;27.90
210;DHT22;90;48.810;9.120;2022-08-03T17:02:24;37.90;27.80
210;DHT22;90;48.810;9.120;2022-08-03T17:04:52;37.90;27.80
210;DHT22;90;48.810;9.120;2022-08-03T17:07:19;38.00;27.70
210;DHT22;90;48.810;9.120;2022-08-03T17:09:47;38.00;27.50
210;DHT22;90;48.810;9.120;2022-08-03T17:12:14;38.00;28.00
210;DHT22;90;48.810;9.120;2022-08-03T17:14:42;38.00;27.90
210;DHT22;90;48.810;9.120;2022-08-03T17:17:14;38.10;28.50
210;DHT22;90;48.810;9.120;2022-08-03T17:19:42;38.10;28.40
210;DHT22;90;48.810;9.120;2022-08-03T17:22:13;38.10;28.20
210;DHT22;90;48.810;9.120;2022-08-03T17:24:43;37.90;28.30
210;DHT22;90;48.810;9.120;2022-08-03T17:27:14;38.10;28.20
210;DHT22;90;48.810;9.120;2022-08-03T17:29:45;38.10;28.30
210;DHT22;90;48.810;9.120;2022-08-03T17:32:15;38.10;28.80
210;DHT22;90;48.810;9.120;2022-08-03T17:34:43;38.10;28.60
210;DHT22;90;48.810;9.120;2022-08-03T17:37:11;38.00;28.40
210;DHT22;90;48.810;9.120;2022-08-03T17:39:39;38.10;28.30
210;DHT22;90;48.810;9.120;2022-08-03T17:42:08;37.90;28.60
210;DHT22;90;48.810;9.120;2022-08-03T17:44:36;37.80;28.60
210;DHT22;90;48.810;9.120;2022-08-03T17:47:04;37.60;28.90
210;DHT22;90;48.810;9.120;2022-08-03T17:49:32;37.70;28.60
210;DHT22;90;48.810;9.120;2022-08-03T17:52:02;37.60;28.60
210;DHT22;90;48.810;9.120;2022-08-03T17:54:37;37.40;29.10
210;DHT22;90;48.810;9.120;2022-08-03T17:57:08;37.40;29.10
210;DHT22;90;48.810;9.120;2022-08-03T17:59:41;37.10;29.60
210;DHT22;90;48.810;9.120;2022-08-03T18:02:24;36.80;30.00
210;DHT22;90;48.810;9.120;2022-08-03T18:05:14;36.80;30.00
210;DHT22;90;48.810;9.120;2022-08-03T18:07:45;36.30;30.60
210;DHT22;90;48.810;9.120;2022-08-03T18:10:18;36.20;30.60
210;DHT22;90;48.810;9.120;2022-08-03T18:12:50;36.10;30.90
210;DHT22;90;48.810;9.120;2022-08-03T18:15:27;35.80;31.60
210;DHT22;90;48.810;9.120;2022-08-03T18:18:04;35.30;32.70
210;DHT22;90;48.810;9.120;2022-08-03T18:20:33;34.90;33.20
210;DHT22;90;48.810;9.120;2022-08-03T18:25:28;34.20;35.20
210;DHT22;90;48.810;9.120;2022-08-03T18:27:55;33.90;36.20
210;DHT22;90;48.810;9.120;2022-08-03T18:35:18;33.10;38.30
210;DHT22;90;48.810;9.120;2022-08-03T18:37:48;32.90;38.80
210;DHT22;90;48.810;9.120;2022-08-03T18:40:17;32.70;39.50
210;DHT22;90;48.810;9.120;2022-08-03T18:45:12;32.50;40.60
210;DHT22;90;48.810;9.120;2022-08-03T18:47:52;32.30;41.10
210;DHT22;90;48.810;9.120;2022-08-03T18:50:26;32.20;41.40
210;DHT22;90;48.810;9.120;2022-08-03T18:53:02;32.20;41.40
210;DHT22;90;48.810;9.120;2022-08-03T18:55:37;31.80;42.20
210;DHT22;90;48.810;9.120;2022-08-03T18:58:16;31.60;42.70
210;DHT22;90;48.810;9.120;2022-08-03T19:00:50;31.40;42.70
210;DHT22;90;48.810;9.120;2022-08-03T19:03:22;31.20;43.20
210;DHT22;90;48.810;9.120;2022-08-03T19:05:55;31.10;43.60
210;DHT22;90;48.810;9.120;2022-08-03T19:08:29;30.90;44.20
210;DHT22;90;48.810;9.120;2022-08-03T19:11:02;30.70;44.20
210;DHT22;90;48.810;9.120;2022-08-03T19:13:36;30.60;44.30
210;DHT22;90;48.810;9.120;2022-08-03T19:16:08;30.40;44.40
210;DHT22;90;48.810;9.120;2022-08-03T19:18:38;30.20;45.00
210;DHT22;90;48.810;9.120;2022-08-03T19:21:07;30.00;45.50
210;DHT22;90;48.810;9.120;2022-08-03T19:23:40;29.90;45.90
210;DHT22;90;48.810;9.120;2022-08-03T19:26:08;29.80;46.10
210;DHT22;90;48.810;9.120;2022-08-03T19:28:37;29.80;46.10